sensor_id;sensor_type;location;lat;lon;timestamp;P1;durP1;ratioP1;P2;durP2;ratioP2
31676;SDS011;18385;51.572;6.578;2023-04-06T00:01:38;8.27;;;4.72;;
31676;SDS011;18385;51.572;6.578;2023-04-06T00:04:05;9.13;;;4.93;;
31676;SDS011;18385;51.572;6.578;2023-04-06T00:06:31;10.18;;;5.43;;
31676;SDS011;18385;51.572;6.578;2023-04-06T00:09:00;13.82;;;5.95;;
31676;SDS011;18385;51.572;6.578;2023-04-06T00:11:26;10.95;;;5.85;;
31676;SDS011;18385;51.572;6.578;2023-04-06T00:13:52;9.85;;;5.30;;
31676;SDS011;18385;51.572;6.578;2023-04-06T00:16:17;9.57;;;4.65;;
31676;SDS011;18385;51.572;6.578;2023-04-06T00:18:43;10.15;;;5.60;;
31676;SDS011;18385;51.572;6.578;2023-04-06T00:21:13;11.13;;;5.40;;
31676;SDS011;18385;51.572;6.578;2023-04-06T00:23:40;13.50;;;5.35;;
31676;SDS011;18385;51.572;6.578;2023-04-06T00:26:06;10.02;;;4.65;;
31676;SDS011;18385;51.572;6.578;2023-04-06T00:28:31;8.27;;;4.68;;
31676;SDS011;18385;51.572;6.578;2023-04-06T00:30:57;10.85;;;5.38;;
31676;SDS011;18385;51.572;6.578;2023-04-06T00:33:23;12.80;;;5.78;;
31676;SDS011;18385;51.572;6.578;2023-04-06T00:35:49;12.32;;;5.00;;
31676;SDS011;18385;51.572;6.578;2023-04-06T00:38:16;13.55;;;5.10;;
31676;SDS011;18385;51.572;6.578;2023-04-06T00:40:42;12.07;;;5.72;;
31676;SDS011;18385;51.572;6.578;2023-04-06T00:43:09;11.52;;;5.35;;
31676;SDS011;18385;51.572;6.578;2023-04-06T00:45:37;9.23;;;4.80;;
31676;SDS011;18385;51.572;6.578;2023-04-06T00:48:04;10.90;;;5.57;;
31676;SDS011;18385;51.572;6.578;2023-04-06T00:50:30;8.57;;;4.60;;
31676;SDS011;18385;51.572;6.578;2023-04-06T00:52:56;13.50;;;5.30;;
31676;SDS011;18385;51.572;6.578;2023-04-06T00:55:26;9.55;;;5.43;;
31676;SDS011;18385;51.572;6.578;2023-04-06T00:57:52;11.98;;;5.63;;
31676;SDS011;18385;51.572;6.578;2023-04-06T01:00:18;10.15;;;4.70;;
31676;SDS011;18385;51.572;6.578;2023-04-06T01:02:45;12.48;;;5.07;;
31676;SDS011;18385;51.572;6.578;2023-04-06T01:05:17;12.63;;;5.28;;
31676;SDS011;18385;51.572;6.578;2023-04-06T01:07:49;10.85;;;5.10;;
31676;SDS011;18385;51.572;6.578;2023-04-06T01:10:23;9.30;;;4.68;;
31676;SDS011;18385;51.572;6.578;2023-04-06T01:13:15;11.85;;;6.03;;
31676;SDS011;18385;51.572;6.578;2023-04-06T01:16:07;14.25;;;6.13;;
31676;SDS011;18385;51.572;6.578;2023-04-06T01:18:47;13.00;;;5.65;;
31676;SDS011;18385;51.572;6.578;2023-04-06T01:21:19;14.55;;;6.40;;
31676;SDS011;18385;51.572;6.578;2023-04-06T01:24:18;11.95;;;5.85;;
31676;SDS011;18385;51.572;6.578;2023-04-06T01:27:02;10.57;;;5.00;;
31676;SDS011;18385;51.572;6.578;2023-04-06T01:29:51;14.05;;;5.70;;
31676;SDS011;18385;51.572;6.578;2023-04-06T01:32:37;11.60;;;5.78;;
31676;SDS011;18385;51.572;6.578;2023-04-06T01:35:06;12.70;;;5.72;;
31676;SDS011;18385;51.572;6.578;2023-04-06T01:37:35;14.63;;;5.88;;
31676;SDS011;18385;51.572;6.578;2023-04-06T01:40:05;12.73;;;5.90;;
31676;SDS011;18385;51.572;6.578;2023-04-06T01:42:40;12.38;;;5.88;;
31676;SDS011;18385;51.572;6.578;2023-04-06T01:45:07;12.48;;;5.57;;
31676;SDS011;18385;51.572;6.578;2023-04-06T01:47:34;13.90;;;5.85;;
31676;SDS011;18385;51.572;6.578;2023-04-06T01:49:59;13.93;;;6.57;;
31676;SDS011;18385;51.572;6.578;2023-04-06T01:52:29;11.45;;;5.75;;
31676;SDS011;18385;51.572;6.578;2023-04-06T01:54:56;10.48;;;5.75;;
31676;SDS011;18385;51.572;6.578;2023-04-06T01:57:44;13.00;;;6.68;;
31676;SDS011;18385;51.572;6.578;2023-04-06T02:00:17;10.52;;;5.32;;
31676;SDS011;18385;51.572;6.578;2023-04-06T02:02:50;11.07;;;6.03;;
31676;SDS011;18385;51.572;6.578;2023-04-06T02:05:21;11.35;;;5.93;;
31676;SDS011;18385;51.572;6.578;2023-04-06T02:10:23;11.40;;;5.22;;
31676;SDS011;18385;51.572;6.578;2023-04-06T02:12:49;11.23;;;5.75;;
31676;SDS011;18385;51.572;6.578;2023-04-06T02:15:22;11.57;;;5.55;;
31676;SDS011;18385;51.572;6.578;2023-04-06T02:17:48;11.68;;;5.65;;
31676;SDS011;18385;51.572;6.578;2023-04-06T02:20:13;13.95;;;6.45;;
31676;SDS011;18385;51.572;6.578;2023-04-06T02:22:39;10.57;;;5.68;;
31676;SDS011;18385;51.572;6.578;2023-04-06T02:25:05;14.43;;;6.07;;
31676;SDS011;18385;51.572;6.578;2023-04-06T02:27:32;11.85;;;6.32;;
31676;SDS011;18385;51.572;6.578;2023-04-06T02:29:58;13.77;;;6.13;;
31676;SDS011;18385;51.572;6.578;2023-04-06T02:32:24;11.45;;;6.00;;
31676;SDS011;18385;51.572;6.578;2023-04-06T02:34:50;13.23;;;6.97;;
31676;SDS011;18385;51.572;6.578;2023-04-06T02:37:18;14.75;;;5.57;;
31676;SDS011;18385;51.572;6.578;2023-04-06T02:39:44;16.23;;;5.70;;
31676;SDS011;18385;51.572;6.578;2023-04-06T02:42:10;15.30;;;7.50;;
31676;SDS011;18385;51.572;6.578;2023-04-06T02:44:36;11.68;;;5.65;;
31676;SDS011;18385;51.572;6.578;2023-04-06T02:47:02;13.13;;;5.57;;
31676;SDS011;18385;51.572;6.578;2023-04-06T02:49:31;16.85;;;6.45;;
31676;SDS011;18385;51.572;6.578;2023-04-06T02:51:58;13.30;;;5.90;;
31676;SDS011;18385;51.572;6.578;2023-04-06T02:54:28;18.13;;;6.43;;
31676;SDS011;18385;51.572;6.578;2023-04-06T02:56:54;13.70;;;5.93;;
31676;SDS011;18385;51.572;6.578;2023-04-06T02:59:22;15.65;;;6.68;;
31676;SDS011;18385;51.572;6.578;2023-04-06T03:02:00;13.27;;;6.25;;
31676;SDS011;18385;51.572;6.578;2023-04-06T03:04:26;12.90;;;6.35;;
31676;SDS011;18385;51.572;6.578;2023-04-06T03:06:54;14.18;;;6.65;;
31676;SDS011;18385;51.572;6.578;2023-04-06T03:09:31;14.40;;;6.40;;
31676;SDS011;18385;51.572;6.578;2023-04-06T03:11:56;11.57;;;5.90;;
31676;SDS011;18385;51.572;6.578;2023-04-06T03:14:23;13.95;;;6.90;;
31676;SDS011;18385;51.572;6.578;2023-04-06T03:16:48;14.82;;;7.25;;
31676;SDS011;18385;51.572;6.578;2023-04-06T03:19:19;13.95;;;6.53;;
31676;SDS011;18385;51.572;6.578;2023-04-06T03:21:45;14.05;;;6.75;;
31676;SDS011;18385;51.572;6.578;2023-04-06T03:24:11;10.80;;;6.00;;
31676;SDS011;18385;51.572;6.578;2023-04-06T03:26:39;18.10;;;7.22;;
31676;SDS011;18385;51.572;6.578;2023-04-06T03:29:06;16.52;;;6.63;;
31676;SDS011;18385;51.572;6.578;2023-04-06T03:31:32;17.55;;;7.55;;
31676;SDS011;18385;51.572;6.578;2023-04-06T03:34:17;16.48;;;7.38;;
31676;SDS011;18385;51.572;6.578;2023-04-06T03:36:43;13.75;;;6.63;;
31676;SDS011;18385;51.572;6.578;2023-04-06T03:39:09;15.07;;;7.40;;
31676;SDS011;18385;51.572;6.578;2023-04-06T03:41:39;19.85;;;8.00;;
31676;SDS011;18385;51.572;6.578;2023-04-06T03:44:34;16.83;;;7.65;;
31676;SDS011;18385;51.572;6.578;2023-04-06T03:47:00;17.98;;;7.32;;
31676;SDS011;18385;51.572;6.578;2023-04-06T03:49:27;14.23;;;7.07;;
31676;SDS011;18385;51.572;6.578;2023-04-06T03:51:53;14.00;;;6.93;;
31676;SDS011;18385;51.572;6.578;2023-04-06T03:54:19;16.50;;;6.70;;
31676;SDS011;18385;51.572;6.578;2023-04-06T03:56:44;18.02;;;7.43;;
31676;SDS011;18385;51.572;6.578;2023-04-06T03:59:10;17.65;;;7.43;;
31676;SDS011;18385;51.572;6.578;2023-04-06T04:01:36;15.10;;;7.88;;
31676;SDS011;18385;51.572;6.578;2023-04-06T04:04:03;17.13;;;7.53;;
31676;SDS011;18385;51.572;6.578;2023-04-06T04:06:30;15.45;;;6.80;;
31676;SDS011;18385;51.572;6.578;2023-04-06T04:08:56;18.38;;;7.65;;
31676;SDS011;18385;51.572;6.578;2023-04-06T04:11:21;16.00;;;7.85;;
31676;SDS011;18385;51.572;6.578;2023-04-06T04:13:53;18.60;;;7.82;;
31676;SDS011;18385;51.572;6.578;2023-04-06T04:16:19;15.30;;;6.40;;
31676;SDS011;18385;51.572;6.578;2023-04-06T04:18:45;20.23;;;7.68;;
31676;SDS011;18385;51.572;6.578;2023-04-06T04:21:12;20.33;;;7.07;;
31676;SDS011;18385;51.572;6.578;2023-04-06T04:23:38;14.40;;;7.63;;
31676;SDS011;18385;51.572;6.578;2023-04-06T04:26:04;17.10;;;7.53;;
31676;SDS011;18385;51.572;6.578;2023-04-06T04:28:30;19.27;;;7.30;;
31676;SDS011;18385;51.572;6.578;2023-04-06T04:30:55;19.13;;;8.13;;
31676;SDS011;18385;51.572;6.578;2023-04-06T04:33:22;18.98;;;8.25;;
31676;SDS011;18385;51.572;6.578;2023-04-06T04:35:50;20.30;;;8.23;;
31676;SDS011;18385;51.572;6.578;2023-04-06T04:38:19;17.98;;;7.85;;
31676;SDS011;18385;51.572;6.578;2023-04-06T04:40:50;19.23;;;7.63;;
31676;SDS011;18385;51.572;6.578;2023-04-06T04:43:15;18.63;;;8.35;;
31676;SDS011;18385;51.572;6.578;2023-04-06T04:45:41;14.77;;;7.93;;
31676;SDS011;18385;51.572;6.578;2023-04-06T04:48:16;18.48;;;7.35;;
31676;SDS011;18385;51.572;6.578;2023-04-06T04:50:59;17.52;;;7.35;;
31676;SDS011;18385;51.572;6.578;2023-04-06T04:53:34;16.90;;;7.40;;
31676;SDS011;18385;51.572;6.578;2023-04-06T04:56:09;13.80;;;7.07;;
31676;SDS011;18385;51.572;6.578;2023-04-06T04:58:34;15.50;;;7.68;;
31676;SDS011;18385;51.572;6.578;2023-04-06T05:01:01;17.70;;;7.40;;
31676;SDS011;18385;51.572;6.578;2023-04-06T05:03:27;16.55;;;7.93;;
31676;SDS011;18385;51.572;6.578;2023-04-06T05:06:00;17.15;;;7.78;;
31676;SDS011;18385;51.572;6.578;2023-04-06T05:08:30;15.57;;;7.72;;
31676;SDS011;18385;51.572;6.578;2023-04-06T05:10:57;15.93;;;7.85;;
31676;SDS011;18385;51.572;6.578;2023-04-06T05:13:24;14.15;;;7.20;;
31676;SDS011;18385;51.572;6.578;2023-04-06T05:15:52;15.60;;;7.70;;
31676;SDS011;18385;51.572;6.578;2023-04-06T05:18:30;14.23;;;7.07;;
31676;SDS011;18385;51.572;6.578;2023-04-06T05:20:57;19.08;;;8.18;;
31676;SDS011;18385;51.572;6.578;2023-04-06T05:23:31;16.27;;;7.35;;
31676;SDS011;18385;51.572;6.578;2023-04-06T05:25:59;17.58;;;8.07;;
31676;SDS011;18385;51.572;6.578;2023-04-06T05:28:25;24.20;;;8.50;;
31676;SDS011;18385;51.572;6.578;2023-04-06T05:30:54;18.65;;;7.88;;
31676;SDS011;18385;51.572;6.578;2023-04-06T05:33:20;16.40;;;8.07;;
31676;SDS011;18385;51.572;6.578;2023-04-06T05:35:59;22.50;;;8.30;;
31676;SDS011;18385;51.572;6.578;2023-04-06T05:38:26;19.25;;;7.88;;
31676;SDS011;18385;51.572;6.578;2023-04-06T05:40:54;20.70;;;8.18;;
31676;SDS011;18385;51.572;6.578;2023-04-06T05:43:24;17.80;;;8.45;;
31676;SDS011;18385;51.572;6.578;2023-04-06T05:45:53;18.85;;;8.50;;
31676;SDS011;18385;51.572;6.578;2023-04-06T05:48:19;18.58;;;7.72;;
31676;SDS011;18385;51.572;6.578;2023-04-06T05:50:51;13.40;;;7.80;;
31676;SDS011;18385;51.572;6.578;2023-04-06T05:53:21;18.40;;;7.63;;
31676;SDS011;18385;51.572;6.578;2023-04-06T05:55:53;17.48;;;7.32;;
31676;SDS011;18385;51.572;6.578;2023-04-06T05:58:20;22.05;;;7.97;;
31676;SDS011;18385;51.572;6.578;2023-04-06T06:00:47;16.83;;;8.45;;
31676;SDS011;18385;51.572;6.578;2023-04-06T06:03:15;16.98;;;7.35;;
31676;SDS011;18385;51.572;6.578;2023-04-06T06:05:46;17.00;;;7.63;;
31676;SDS011;18385;51.572;6.578;2023-04-06T06:08:18;16.90;;;7.40;;
31676;SDS011;18385;51.572;6.578;2023-04-06T06:10:46;16.70;;;7.43;;
31676;SDS011;18385;51.572;6.578;2023-04-06T06:13:12;18.15;;;7.05;;
31676;SDS011;18385;51.572;6.578;2023-04-06T06:15:38;21.25;;;7.63;;
31676;SDS011;18385;51.572;6.578;2023-04-06T06:18:04;21.88;;;7.50;;
31676;SDS011;18385;51.572;6.578;2023-04-06T06:20:30;16.00;;;6.93;;
31676;SDS011;18385;51.572;6.578;2023-04-06T06:23:00;15.55;;;7.38;;
31676;SDS011;18385;51.572;6.578;2023-04-06T06:25:25;17.80;;;6.60;;
31676;SDS011;18385;51.572;6.578;2023-04-06T06:27:51;17.23;;;7.15;;
31676;SDS011;18385;51.572;6.578;2023-04-06T06:30:18;13.75;;;6.85;;
31676;SDS011;18385;51.572;6.578;2023-04-06T06:32:44;14.75;;;7.25;;
31676;SDS011;18385;51.572;6.578;2023-04-06T06:35:10;16.60;;;6.95;;
31676;SDS011;18385;51.572;6.578;2023-04-06T06:37:37;25.58;;;7.57;;
31676;SDS011;18385;51.572;6.578;2023-04-06T06:40:03;17.80;;;7.30;;
31676;SDS011;18385;51.572;6.578;2023-04-06T06:42:32;16.38;;;6.50;;
31676;SDS011;18385;51.572;6.578;2023-04-06T06:45:20;14.30;;;6.05;;
31676;SDS011;18385;51.572;6.578;2023-04-06T06:47:46;19.17;;;6.50;;
31676;SDS011;18385;51.572;6.578;2023-04-06T06:50:12;13.40;;;7.05;;
31676;SDS011;18385;51.572;6.578;2023-04-06T06:52:38;15.00;;;6.60;;
31676;SDS011;18385;51.572;6.578;2023-04-06T06:55:04;12.98;;;6.75;;
31676;SDS011;18385;51.572;6.578;2023-04-06T06:57:30;11.75;;;6.20;;
31676;SDS011;18385;51.572;6.578;2023-04-06T06:59:56;14.00;;;6.85;;
31676;SDS011;18385;51.572;6.578;2023-04-06T07:02:25;12.50;;;6.88;;
31676;SDS011;18385;51.572;6.578;2023-04-06T07:04:51;13.65;;;6.40;;
31676;SDS011;18385;51.572;6.578;2023-04-06T07:07:17;15.73;;;6.13;;
31676;SDS011;18385;51.572;6.578;2023-04-06T07:09:42;12.85;;;6.95;;
31676;SDS011;18385;51.572;6.578;2023-04-06T07:12:08;13.77;;;6.50;;
31676;SDS011;18385;51.572;6.578;2023-04-06T07:14:35;14.48;;;7.05;;
31676;SDS011;18385;51.572;6.578;2023-04-06T07:17:02;16.40;;;6.80;;
31676;SDS011;18385;51.572;6.578;2023-04-06T07:19:27;12.88;;;6.78;;
31676;SDS011;18385;51.572;6.578;2023-04-06T07:21:53;17.48;;;6.93;;
31676;SDS011;18385;51.572;6.578;2023-04-06T07:24:19;15.00;;;6.78;;
31676;SDS011;18385;51.572;6.578;2023-04-06T07:26:45;21.42;;;6.82;;
31676;SDS011;18385;51.572;6.578;2023-04-06T07:29:11;14.10;;;6.10;;
31676;SDS011;18385;51.572;6.578;2023-04-06T07:31:38;13.50;;;6.53;;
31676;SDS011;18385;51.572;6.578;2023-04-06T07:34:03;11.77;;;5.78;;
31676;SDS011;18385;51.572;6.578;2023-04-06T07:36:30;15.73;;;6.45;;
31676;SDS011;18385;51.572;6.578;2023-04-06T07:38:55;11.98;;;6.47;;
31676;SDS011;18385;51.572;6.578;2023-04-06T07:41:22;17.88;;;6.60;;
31676;SDS011;18385;51.572;6.578;2023-04-06T07:43:49;13.00;;;6.38;;
31676;SDS011;18385;51.572;6.578;2023-04-06T07:46:15;18.48;;;6.22;;
31676;SDS011;18385;51.572;6.578;2023-04-06T07:48:41;12.57;;;6.60;;
31676;SDS011;18385;51.572;6.578;2023-04-06T07:51:06;12.00;;;6.07;;
31676;SDS011;18385;51.572;6.578;2023-04-06T07:53:37;13.55;;;6.65;;
31676;SDS011;18385;51.572;6.578;2023-04-06T07:56:03;13.38;;;7.05;;
31676;SDS011;18385;51.572;6.578;2023-04-06T07:58:29;15.48;;;6.40;;
31676;SDS011;18385;51.572;6.578;2023-04-06T08:00:54;12.75;;;6.50;;
31676;SDS011;18385;51.572;6.578;2023-04-06T08:03:20;14.00;;;6.35;;
31676;SDS011;18385;51.572;6.578;2023-04-06T08:08:16;15.43;;;6.65;;
31676;SDS011;18385;51.572;6.578;2023-04-06T08:10:42;23.17;;;6.75;;
31676;SDS011;18385;51.572;6.578;2023-04-06T08:13:08;15.77;;;7.50;;
31676;SDS011;18385;51.572;6.578;2023-04-06T08:15:33;19.75;;;7.70;;
31676;SDS011;18385;51.572;6.578;2023-04-06T08:17:59;17.50;;;6.88;;
31676;SDS011;18385;51.572;6.578;2023-04-06T08:20:25;16.08;;;6.60;;
31676;SDS011;18385;51.572;6.578;2023-04-06T08:22:50;16.50;;;7.20;;
31676;SDS011;18385;51.572;6.578;2023-04-06T08:25:16;13.63;;;7.13;;
31676;SDS011;18385;51.572;6.578;2023-04-06T08:27:42;14.60;;;6.72;;
31676;SDS011;18385;51.572;6.578;2023-04-06T08:30:08;13.02;;;7.50;;
31676;SDS011;18385;51.572;6.578;2023-04-06T08:32:34;16.98;;;7.22;;
31676;SDS011;18385;51.572;6.578;2023-04-06T08:35:00;16.67;;;7.88;;
31676;SDS011;18385;51.572;6.578;2023-04-06T08:37:28;14.18;;;6.43;;
31676;SDS011;18385;51.572;6.578;2023-04-06T08:39:54;17.23;;;6.55;;
31676;SDS011;18385;51.572;6.578;2023-04-06T08:42:21;17.48;;;7.78;;
31676;SDS011;18385;51.572;6.578;2023-04-06T08:44:50;15.00;;;7.07;;
31676;SDS011;18385;51.572;6.578;2023-04-06T08:47:18;15.73;;;7.05;;
31676;SDS011;18385;51.572;6.578;2023-04-06T08:49:45;15.18;;;6.93;;
31676;SDS011;18385;51.572;6.578;2023-04-06T08:52:11;15.88;;;7.78;;
31676;SDS011;18385;51.572;6.578;2023-04-06T08:54:38;18.35;;;7.68;;
31676;SDS011;18385;51.572;6.578;2023-04-06T08:57:04;17.15;;;7.30;;
31676;SDS011;18385;51.572;6.578;2023-04-06T08:59:34;14.10;;;7.45;;
31676;SDS011;18385;51.572;6.578;2023-04-06T09:02:00;16.33;;;8.05;;
31676;SDS011;18385;51.572;6.578;2023-04-06T09:04:28;15.10;;;6.55;;
31676;SDS011;18385;51.572;6.578;2023-04-06T09:06:54;18.33;;;9.02;;
31676;SDS011;18385;51.572;6.578;2023-04-06T09:09:20;24.38;;;9.73;;
31676;SDS011;18385;51.572;6.578;2023-04-06T09:11:47;21.08;;;7.63;;
31676;SDS011;18385;51.572;6.578;2023-04-06T09:14:14;16.25;;;8.13;;
31676;SDS011;18385;51.572;6.578;2023-04-06T09:16:42;18.05;;;8.50;;
31676;SDS011;18385;51.572;6.578;2023-04-06T09:19:10;20.50;;;8.40;;
31676;SDS011;18385;51.572;6.578;2023-04-06T09:21:37;20.58;;;8.32;;
31676;SDS011;18385;51.572;6.578;2023-04-06T09:24:05;16.02;;;8.80;;
31676;SDS011;18385;51.572;6.578;2023-04-06T09:26:32;20.25;;;8.82;;
31676;SDS011;18385;51.572;6.578;2023-04-06T09:29:09;15.95;;;8.35;;
31676;SDS011;18385;51.572;6.578;2023-04-06T09:31:35;16.85;;;8.52;;
31676;SDS011;18385;51.572;6.578;2023-04-06T09:34:01;15.82;;;7.68;;
31676;SDS011;18385;51.572;6.578;2023-04-06T09:36:31;18.90;;;8.90;;
31676;SDS011;18385;51.572;6.578;2023-04-06T09:39:03;16.77;;;8.25;;
31676;SDS011;18385;51.572;6.578;2023-04-06T09:41:30;20.45;;;8.70;;
31676;SDS011;18385;51.572;6.578;2023-04-06T09:46:30;16.58;;;8.30;;
31676;SDS011;18385;51.572;6.578;2023-04-06T09:49:00;17.95;;;7.95;;
31676;SDS011;18385;51.572;6.578;2023-04-06T09:51:28;18.55;;;7.88;;
31676;SDS011;18385;51.572;6.578;2023-04-06T09:53:56;15.55;;;8.38;;
31676;SDS011;18385;51.572;6.578;2023-04-06T09:56:30;15.32;;;8.43;;
31676;SDS011;18385;51.572;6.578;2023-04-06T09:59:02;20.52;;;8.88;;
31676;SDS011;18385;51.572;6.578;2023-04-06T10:01:33;20.45;;;8.82;;
31676;SDS011;18385;51.572;6.578;2023-04-06T10:04:23;18.97;;;8.07;;
31676;SDS011;18385;51.572;6.578;2023-04-06T10:07:03;14.50;;;6.97;;
31676;SDS011;18385;51.572;6.578;2023-04-06T10:09:31;13.80;;;7.40;;
31676;SDS011;18385;51.572;6.578;2023-04-06T10:12:05;22.33;;;10.27;;
31676;SDS011;18385;51.572;6.578;2023-04-06T10:14:34;18.20;;;9.50;;
31676;SDS011;18385;51.572;6.578;2023-04-06T10:17:03;21.55;;;8.77;;
31676;SDS011;18385;51.572;6.578;2023-04-06T10:22:50;16.88;;;8.88;;
31676;SDS011;18385;51.572;6.578;2023-04-06T10:25:27;16.35;;;8.45;;
31676;SDS011;18385;51.572;6.578;2023-04-06T10:28:15;17.40;;;8.40;;
31676;SDS011;18385;51.572;6.578;2023-04-06T10:30:44;18.73;;;9.07;;
31676;SDS011;18385;51.572;6.578;2023-04-06T10:33:17;14.82;;;8.23;;
31676;SDS011;18385;51.572;6.578;2023-04-06T10:35:44;16.42;;;7.65;;
31676;SDS011;18385;51.572;6.578;2023-04-06T10:38:11;16.90;;;8.25;;
31676;SDS011;18385;51.572;6.578;2023-04-06T10:40:39;16.30;;;8.32;;
31676;SDS011;18385;51.572;6.578;2023-04-06T10:43:12;21.95;;;9.10;;
31676;SDS011;18385;51.572;6.578;2023-04-06T10:45:39;21.02;;;9.52;;
31676;SDS011;18385;51.572;6.578;2023-04-06T10:48:12;20.95;;;9.45;;
31676;SDS011;18385;51.572;6.578;2023-04-06T10:50:40;19.65;;;8.65;;
31676;SDS011;18385;51.572;6.578;2023-04-06T10:53:07;20.98;;;9.73;;
31676;SDS011;18385;51.572;6.578;2023-04-06T10:55:33;22.90;;;9.85;;
31676;SDS011;18385;51.572;6.578;2023-04-06T10:57:59;15.25;;;7.85;;
31676;SDS011;18385;51.572;6.578;2023-04-06T11:00:25;16.90;;;8.45;;
31676;SDS011;18385;51.572;6.578;2023-04-06T11:02:51;19.52;;;7.88;;
31676;SDS011;18385;51.572;6.578;2023-04-06T11:05:24;15.32;;;7.53;;
31676;SDS011;18385;51.572;6.578;2023-04-06T11:07:50;15.68;;;8.30;;
31676;SDS011;18385;51.572;6.578;2023-04-06T11:10:20;16.95;;;8.50;;
31676;SDS011;18385;51.572;6.578;2023-04-06T11:12:52;19.13;;;9.10;;
31676;SDS011;18385;51.572;6.578;2023-04-06T11:15:19;17.23;;;8.98;;
31676;SDS011;18385;51.572;6.578;2023-04-06T11:17:44;17.20;;;8.43;;
31676;SDS011;18385;51.572;6.578;2023-04-06T11:20:11;19.70;;;9.40;;
31676;SDS011;18385;51.572;6.578;2023-04-06T11:22:47;18.00;;;8.77;;
31676;SDS011;18385;51.572;6.578;2023-04-06T11:25:14;17.77;;;9.45;;
31676;SDS011;18385;51.572;6.578;2023-04-06T11:27:42;17.48;;;9.00;;
31676;SDS011;18385;51.572;6.578;2023-04-06T11:30:08;19.75;;;10.23;;
31676;SDS011;18385;51.572;6.578;2023-04-06T11:32:41;18.67;;;9.88;;
31676;SDS011;18385;51.572;6.578;2023-04-06T11:35:14;18.50;;;9.20;;
31676;SDS011;18385;51.572;6.578;2023-04-06T11:37:44;17.30;;;8.98;;
31676;SDS011;18385;51.572;6.578;2023-04-06T11:40:11;17.73;;;8.45;;
31676;SDS011;18385;51.572;6.578;2023-04-06T11:42:36;20.50;;;9.07;;
31676;SDS011;18385;51.572;6.578;2023-04-06T11:45:02;18.42;;;8.88;;
31676;SDS011;18385;51.572;6.578;2023-04-06T11:47:35;15.80;;;7.93;;
31676;SDS011;18385;51.572;6.578;2023-04-06T11:50:06;17.80;;;8.95;;
31676;SDS011;18385;51.572;6.578;2023-04-06T11:52:32;17.00;;;8.15;;
31676;SDS011;18385;51.572;6.578;2023-04-06T11:54:58;18.55;;;8.73;;
31676;SDS011;18385;51.572;6.578;2023-04-06T11:57:35;15.07;;;8.57;;
31676;SDS011;18385;51.572;6.578;2023-04-06T12:00:00;19.67;;;9.23;;
31676;SDS011;18385;51.572;6.578;2023-04-06T12:02:26;16.75;;;8.50;;
31676;SDS011;18385;51.572;6.578;2023-04-06T12:04:52;17.90;;;9.23;;
31676;SDS011;18385;51.572;6.578;2023-04-06T12:07:18;16.67;;;8.70;;
31676;SDS011;18385;51.572;6.578;2023-04-06T12:09:43;16.80;;;9.77;;
31676;SDS011;18385;51.572;6.578;2023-04-06T12:12:09;18.25;;;9.45;;
31676;SDS011;18385;51.572;6.578;2023-04-06T12:14:37;17.35;;;8.98;;
31676;SDS011;18385;51.572;6.578;2023-04-06T12:17:03;12.93;;;7.57;;
31676;SDS011;18385;51.572;6.578;2023-04-06T12:19:38;15.23;;;7.20;;
31676;SDS011;18385;51.572;6.578;2023-04-06T12:22:04;15.05;;;8.23;;
31676;SDS011;18385;51.572;6.578;2023-04-06T12:24:30;13.85;;;7.18;;
31676;SDS011;18385;51.572;6.578;2023-04-06T12:26:56;14.23;;;7.63;;
31676;SDS011;18385;51.572;6.578;2023-04-06T12:29:23;12.95;;;7.15;;
31676;SDS011;18385;51.572;6.578;2023-04-06T12:31:49;10.52;;;6.47;;
31676;SDS011;18385;51.572;6.578;2023-04-06T12:34:16;12.13;;;7.13;;
31676;SDS011;18385;51.572;6.578;2023-04-06T12:36:42;10.63;;;6.40;;
31676;SDS011;18385;51.572;6.578;2023-04-06T12:39:07;13.40;;;7.13;;
31676;SDS011;18385;51.572;6.578;2023-04-06T12:41:33;13.55;;;5.82;;
31676;SDS011;18385;51.572;6.578;2023-04-06T12:43:59;9.57;;;5.50;;
31676;SDS011;18385;51.572;6.578;2023-04-06T12:46:25;11.95;;;6.10;;
31676;SDS011;18385;51.572;6.578;2023-04-06T12:48:52;12.77;;;6.28;;
31676;SDS011;18385;51.572;6.578;2023-04-06T12:51:21;11.75;;;6.68;;
31676;SDS011;18385;51.572;6.578;2023-04-06T12:53:47;15.00;;;8.23;;
31676;SDS011;18385;51.572;6.578;2023-04-06T12:56:13;12.27;;;6.50;;
31676;SDS011;18385;51.572;6.578;2023-04-06T12:58:41;9.80;;;6.20;;
31676;SDS011;18385;51.572;6.578;2023-04-06T13:01:07;11.73;;;5.70;;
31676;SDS011;18385;51.572;6.578;2023-04-06T13:03:33;7.15;;;4.20;;
31676;SDS011;18385;51.572;6.578;2023-04-06T13:05:59;6.32;;;3.63;;
31676;SDS011;18385;51.572;6.578;2023-04-06T13:08:26;8.80;;;3.60;;
31676;SDS011;18385;51.572;6.578;2023-04-06T13:10:52;7.53;;;3.55;;
31676;SDS011;18385;51.572;6.578;2023-04-06T13:13:22;7.07;;;3.30;;
31676;SDS011;18385;51.572;6.578;2023-04-06T13:15:49;6.47;;;3.25;;
31676;SDS011;18385;51.572;6.578;2023-04-06T13:18:16;5.28;;;2.80;;
31676;SDS011;18385;51.572;6.578;2023-04-06T13:20:41;5.20;;;3.38;;
31676;SDS011;18385;51.572;6.578;2023-04-06T13:23:07;6.30;;;3.30;;
31676;SDS011;18385;51.572;6.578;2023-04-06T13:25:33;6.43;;;3.80;;
31676;SDS011;18385;51.572;6.578;2023-04-06T13:27:59;5.78;;;3.90;;
31676;SDS011;18385;51.572;6.578;2023-04-06T13:30:25;5.88;;;3.92;;
31676;SDS011;18385;51.572;6.578;2023-04-06T13:32:51;8.10;;;4.45;;
31676;SDS011;18385;51.572;6.578;2023-04-06T13:35:17;8.70;;;4.10;;
31676;SDS011;18385;51.572;6.578;2023-04-06T13:37:43;7.40;;;4.18;;
31676;SDS011;18385;51.572;6.578;2023-04-06T13:40:09;9.07;;;4.55;;
31676;SDS011;18385;51.572;6.578;2023-04-06T13:42:36;7.07;;;4.43;;
31676;SDS011;18385;51.572;6.578;2023-04-06T13:45:05;8.40;;;4.95;;
31676;SDS011;18385;51.572;6.578;2023-04-06T13:47:31;9.30;;;4.60;;
31676;SDS011;18385;51.572;6.578;2023-04-06T13:49:56;8.35;;;4.60;;
31676;SDS011;18385;51.572;6.578;2023-04-06T13:52:22;9.23;;;5.25;;
31676;SDS011;18385;51.572;6.578;2023-04-06T13:54:48;10.80;;;5.25;;
31676;SDS011;18385;51.572;6.578;2023-04-06T13:57:14;10.48;;;5.38;;
31676;SDS011;18385;51.572;6.578;2023-04-06T13:59:40;12.27;;;6.28;;
31676;SDS011;18385;51.572;6.578;2023-04-06T14:02:06;11.63;;;5.65;;
31676;SDS011;18385;51.572;6.578;2023-04-06T14:04:34;12.27;;;5.80;;
31676;SDS011;18385;51.572;6.578;2023-04-06T14:07:00;8.75;;;4.90;;
31676;SDS011;18385;51.572;6.578;2023-04-06T14:09:27;12.57;;;6.72;;
31676;SDS011;18385;51.572;6.578;2023-04-06T14:11:54;11.38;;;6.45;;
31676;SDS011;18385;51.572;6.578;2023-04-06T14:14:20;10.50;;;6.40;;
31676;SDS011;18385;51.572;6.578;2023-04-06T14:16:47;12.25;;;6.03;;
31676;SDS011;18385;51.572;6.578;2023-04-06T14:19:13;15.80;;;7.75;;
31676;SDS011;18385;51.572;6.578;2023-04-06T14:21:46;16.80;;;6.95;;
31676;SDS011;18385;51.572;6.578;2023-04-06T14:24:13;11.90;;;6.10;;
31676;SDS011;18385;51.572;6.578;2023-04-06T14:26:40;14.55;;;6.47;;
31676;SDS011;18385;51.572;6.578;2023-04-06T14:29:06;11.32;;;6.95;;
31676;SDS011;18385;51.572;6.578;2023-04-06T14:31:32;11.77;;;6.82;;
31676;SDS011;18385;51.572;6.578;2023-04-06T14:34:00;12.95;;;7.00;;
31676;SDS011;18385;51.572;6.578;2023-04-06T14:36:27;17.63;;;8.75;;
31676;SDS011;18385;51.572;6.578;2023-04-06T14:38:54;15.70;;;8.40;;
31676;SDS011;18385;51.572;6.578;2023-04-06T14:41:23;14.70;;;7.72;;
31676;SDS011;18385;51.572;6.578;2023-04-06T14:43:50;14.27;;;7.65;;
31676;SDS011;18385;51.572;6.578;2023-04-06T14:46:17;11.43;;;6.80;;
31676;SDS011;18385;51.572;6.578;2023-04-06T14:48:44;17.77;;;9.07;;
31676;SDS011;18385;51.572;6.578;2023-04-06T14:51:12;11.55;;;6.22;;
31676;SDS011;18385;51.572;6.578;2023-04-06T14:53:38;11.73;;;5.97;;